KSEAGCHI

Guest
Details From KSEA - Seattle Tacoma Intl
To GCHI - Hierro
Flight Number -
Tags Generated
Created
Modified
Stats Distance 4,731 nm / 8,761 km
Max Altitude 0 ft / 0 m
Waypoints 6
Social Downloads 0
Likes 0
Share VATSIM

Download

Looking for another format? Having issues loading an existing format? Contact us
Advertisement - Login to hide

Notes

Generated

Route

KSEA SILVR 9X XEVUL SEVTA GCHI

ID Type Via Altitude Latitude Longitude Leg Dist Tot Dist Heading (true) Name
O KSEA APT - 0 ft / 0 m 47.46383˚ -122.31786˚ - 0 nm - -
SILVR FIX - 0 ft / 0 m 49.34167˚ -116.78500˚ 247 nm 247 nm 61° / 65° -
9X NDB - 0 ft / 0 m 50.63222˚ -111.92167˚ 203 nm 450 nm 66° / 69° BROOKS NDB-DME
XEVUL FIX - 0 ft / 0 m 51.96933˚ -106.50567˚ 218 nm 669 nm 66° / 71° -
SEVTA FIX - 0 ft / 0 m 53.76623˚ -94.40717˚ 451 nm 1120 nm 71° / 81° -
O GCHI APT - 0 ft / 0 m 27.81985˚ -17.88997˚ 3610 nm 4730 nm 83° / 138° -

Altitude Profile

Advertisement - Login to hide

Weather


0- 5 10 15 20 25 30 35+ Temperature / ° C

Clouds and Precipitation
Forecast for 2018-05-25 18:00 UTC. Updated 3 hours ago

Ground ~20,000 ft ~40,000 ft Winds

KSEA

Details ICAO KSEA (SEA)
Name Seattle Tacoma Intl
Region United States
Timezone America/Los_Angeles (UTC-7.0)
Stats Elevation 433 ft / 132 m (AMSL)
Location 47.450188° -122.312320°
Runways 3
Magnetic Variation 15.622° E

METAR

KSEA 251953Z 27005KT 10SM FEW025 BKN046 17/09 A3004 RMK AO2 SLP177 T01670089

Decode

TAF

KSEA 251739Z 2518/2624 28004KT P6SM BKN025 FM252100 33007KT P6SM SCT035 FM260100 35008KT P6SM SCT035 BKN050 FM260500 20005KT P6SM SCT050 FM261100 18005KT P6SM SCT014 BKN020 OVC045 FM261800 22005KT P6SM SCT020 BKN030 FM262100 24006KT P6SM SCT030 BKN040

Decode

Departure Runways

ID Width Length Bearing (true) Bearing (mag) Surface Threshold Offset Overrun Length
16C 151 ft / 46 m 9,429 ft / 2,874 m 180.34° 164.72° Concrete 0 ft / 0 m 223 ft / 68 m
16L 151 ft / 46 m 11,904 ft / 3,628 m 180.34° 164.72° Concrete 0 ft / 0 m 151 ft / 46 m
16R 151 ft / 46 m 8,503 ft / 2,592 m 180.34° 164.72° Concrete 0 ft / 0 m 164 ft / 50 m
34C 151 ft / 46 m 9,429 ft / 2,874 m 0.34° 344.72° Concrete 0 ft / 0 m 394 ft / 120 m
34L 151 ft / 46 m 8,503 ft / 2,592 m 0.34° 344.72° Concrete 0 ft / 0 m 394 ft / 120 m
34R 151 ft / 46 m 11,904 ft / 3,628 m 0.34° 344.72° Concrete 0 ft / 0 m 400 ft / 122 m

GCHI

Details ICAO GCHI (VDE)
Name Hierro
Region Canary Islands
Timezone Atlantic/Canary (UTC+1.0)
Stats Elevation 337 ft / 103 m (AMSL)
Location 27.814848° -17.887052°
Runways 1
Magnetic Variation 5.576° W

METAR

GCHI 252030Z AUTO 02011KT 340V050 9999 OVC030/// 20/15 Q1018

Decode

TAF

TAF GCHI 252000Z 2521/2621 36012KT 9999 SCT045 TX23/2614Z TN18/2605Z

Decode

Destination Runways

ID Width Length Bearing (true) Bearing (mag) Surface Threshold Offset Overrun Length
16 98 ft / 30 m 4,110 ft / 1,253 m 152.71° 158.29° Asphalt 0 ft / 0 m 112 ft / 34 m
34 98 ft / 30 m 4,110 ft / 1,253 m 332.71° 338.29° Asphalt 0 ft / 0 m 105 ft / 32 m